Station info - map view · info · telemetry · weather · raw · status · beacons · messages · bulletins · browse · moving · my account
Callsign, ship name or locator: Clear       
It is possible to search using wildcards (*?) after a prefix. Example: OH*
APRS station DG3SBJ-9 - show graphs
Map loading...
Comment: Georg JN48NU
Mic-E message: Off duty
Last status: /TinyTrak4 DG3SBJ
Location: 48°51.24' N 9°06.25' E - locator JN48NU24MX - show map - static map
2.1 miles Southeast bearing 139° from Schwieberdingen, Regierungsbezirk Stuttgart, Baden-Württemberg, Germany [?]
3.3 miles East bearing 105° from Hemmingen, Regierungsbezirk Stuttgart, Baden-Württemberg, Germany
6.0 miles Northwest bearing 326° from Stuttgart, Regierungsbezirk Stuttgart, Baden-Württemberg, Germany
52.5 miles Southeast bearing 146° from Mannheim, Baden-Württemberg, Germany
Last position: 2017-06-26 10:09:41 EDT (13h38m ago)
2017-06-26 16:09:41 CEST local time at Schwieberdingen, Germany [?]
Altitude: 1001 ft
Course:
Last path: DG3SBJ-9>TXUQR4 via WIDE1-1,WIDE2-1,qAS,DG1SFJ-10 (good)
Positions stored: 15619
Packet rate: 42 seconds between packets on average during 2101 seconds.
Stations near current position of DG3SBJ-9 - show more
callsign distance last heard - EDT      callsign distance last heard - EDT
DL9SAD-81.4 miles 321°2017-06-26 10:06:41 DG1SFJ-131.5 miles 318°2017-06-26 23:38:57
DG1SFJ-91.5 miles 318°2017-06-26 11:33:10 DL9SAD D1.6 miles 320°2017-06-26 15:45:59
DL9SAD-D1.6 miles 320°2017-06-26 15:46:09 FW09271.6 miles 320°2017-06-26 23:14:07
DL9SAD-131.6 miles 322°2017-06-26 13:14:52 DL4ML-91.7 miles 319°2017-06-26 10:13:00
DG9SA-92.2 miles 108°2017-06-17 03:08:53 P55-Treff2.6 miles 329°2017-06-26 23:28:22
DL2GBG-93.7 miles 125°2017-06-26 16:21:07 DO6CM-73.7 miles 91°2017-06-10 15:22:27
DD2JL-53.7 miles 89°2017-06-25 14:02:50 DD2JL-73.7 miles 89°2017-06-09 15:16:05
DL4SAL-93.8 miles 87°2017-06-23 06:23:14 DL1VFR-103.8 miles 6°2017-06-03 07:30:23
OE8EIK-94.2 miles 129°2017-06-14 04:22:38 DB0LBX B4.3 miles 63°2017-06-26 23:39:21
DB0LBX-B4.3 miles 63°2017-06-26 23:39:31 M30532484.8 miles 66°2017-05-29 08:51:02
Stations which heard DG3SBJ-9 directly on radio –
callsign pkts first heard - EDT last heard longest (tx => rx) longest at - EDT
DB0KX-2 13 2017-06-24 08:35:43 2017-06-26 05:41:38 JO31FA > JO31EG 18.4 miles 342° 2017-06-26 05:41:38
DB0KT 1 2017-06-24 05:58:03 2017-06-24 05:58:03 JN49BS > JO40PL 71.2 miles 47° 2017-06-24 05:58:03
DB0KUN 4 2017-06-24 04:37:03 2017-06-26 09:41:20 JN49LF > JN49TH 31.2 miles 79° 2017-06-26 09:25:14
DL3SL-6 4 2017-06-24 04:41:32 2017-06-26 09:40:46 JN49OE > JN49RE 9.1 miles 83° 2017-06-26 09:36:55
DB0RO 17 2017-06-24 05:08:47 2017-06-26 09:19:58 JN49KF > JN49AF 37.7 miles 270° 2017-06-26 09:19:58
DB0NY 4 2017-06-24 07:28:36 2017-06-26 06:20:10 JO30OJ > JO31TB 48.2 miles 20° 2017-06-24 07:28:36
DB0BOS 1 2017-06-26 08:31:21 2017-06-26 08:31:21 JN49DP > JN49LR 29.0 miles 75° 2017-06-26 08:31:21
DB0KWE 6 2017-06-24 08:02:23 2017-06-26 05:54:20 JO30IU > JO30DU 17.0 miles 264° 2017-06-24 08:02:23
DO6WN 7 2017-06-24 05:43:47 2017-06-26 08:31:19 JN49CQ > JN49EP 6.9 miles 121° 2017-06-24 05:47:59
DL8KZ 5 2017-06-24 07:36:20 2017-06-26 06:13:57 JO30KQ > JO30PQ 15.7 miles 89° 2017-06-26 06:13:57
DB0FTC 18 2017-06-24 05:18:52 2017-06-26 08:48:11 JN49GH > JN49BO 25.8 miles 315° 2017-06-24 05:18:52
DB0AIT 1 2017-06-26 10:01:19 2017-06-26 10:01:19 JN48NU > JN48RS 14.5 miles 108° 2017-06-26 10:01:19
DG3IAP-10 1 2017-06-24 04:34:02 2017-06-24 04:34:02 JN49OA > JN48KV 19.1 miles 246° 2017-06-24 04:34:02
DB0UHC 6 2017-06-24 08:25:49 2017-06-26 05:48:58 JO31EE > JO31HB 12.1 miles 130° 2017-06-24 08:42:14
DO5NE 1 2017-06-24 08:39:46 2017-06-24 08:39:46 JO31EE > JO31HE 9.1 miles 84° 2017-06-24 08:39:46
DJ8HS-1 3 2017-06-26 07:16:48 2017-06-26 07:52:40 JN39VX > JO40CB 19.9 miles 74° 2017-06-26 07:17:34
DH9SB 20 2017-06-24 04:47:38 2017-06-26 09:35:27 JN49OE > JN49NE 4.6 miles 283° 2017-06-24 04:47:38
DB0FDA 15 2017-06-24 05:34:51 2017-06-26 08:40:39 JN39UX > JN49HU 42.2 miles 101° 2017-06-26 07:13:08
DB0RMK 3 2017-06-24 04:30:17 2017-06-26 09:50:01 JN49OA > JN48RV 12.6 miles 131° 2017-06-24 04:34:47
DO6HN-10 4 2017-06-24 04:45:56 2017-06-24 04:50:44 JN49OE > JN49OD 3.7 miles 139° 2017-06-24 04:50:44
DL4SBK-10 4 2017-06-24 04:33:17 2017-06-26 09:59:04 JN48OX > JN48PV 7.2 miles 163° 2017-06-24 04:33:17
DB0WIM 4 2017-06-24 05:16:46 2017-06-26 08:57:52 JN49HH > JN49CD 19.5 miles 234° 2017-06-24 05:16:46
DL1JU-13 2 2017-06-26 07:29:31 2017-06-26 07:46:11 JN39VX > JO40EA 25.8 miles 82° 2017-06-26 07:29:31
DB0ESG-10 11 2017-06-24 06:07:01 2017-06-26 08:11:39 JN39XU > JN39XX 9.5 miles 354° 2017-06-26 08:11:39
DB0NIS-10 30 2017-06-24 07:42:06 2017-06-26 06:25:15 JO30NN > JO30EP 33.3 miles 281° 2017-06-26 06:25:15
DB0UT-10 4 2017-06-24 06:28:25 2017-06-26 07:15:18 JO30TC > JN39NR 31.8 miles 223° 2017-06-24 06:28:25
DB0ODE-10 23 2017-06-24 04:42:48 2017-06-26 09:45:31 JN49DO > JN49MH 40.5 miles 118° 2017-06-26 08:33:05
DB0XO 13 2017-06-24 08:00:53 2017-06-26 06:01:19 JO31FA > JO30IW 10.8 miles 115° 2017-06-26 05:43:47

Only position packets which were originated by the station are shown here. The range statistics show some extra long hops, because some digipeaters do not correctly add themselves to the digipeater path. Please check the raw packets.
About this site
This page shows real-time information collected from the Automatic Position Reporting System Internet network (APRS-IS). APRS is used by amateur (ham) radio operators to transmit real-time position information, weather data, telemetry and messages over the radio. A vehicle equipped with a GPS receiver, a VHF transmitter or HF transceiver and a small computer device called a tracker transmits it's location, speed and course in a small data packet, which is then received by a nearby iGate receiving site which forwards the packet on the Internet. Systems connected to the Internet can send information on the APRS-IS without a radio transmitter, or collect and display information transmitted anywhere in the world.
FAQ · Blog · Discussion group · Linking to aprs.fi · AIS sites · Service status · Database statistics · Advertising on aprs.fi · Technical details · API · Change log · Planned changes · Credits and thanks · Terms Of Service · iPhone/iPad APRS